Time;durP1;ratioP1;P1;durP2;ratioP2;P2;SDS_P1;SDS_P2;PMS_P1;PMS_P2;Temp;Humidity;BMP_temperature;BMP_pressure;BME280_temperature;BME280_humidity;BME280_pressure;Samples;Min_cycle;Max_cycle;Signal;HPM_P1;HPM_P2
2021/12/29 00:01:30;;;;;;;0.57;0.20;;;;;;;;;;4953092;28;20631;-72
2021/12/29 00:03:58;;;;;;;0.37;0.20;;;;;;;;;;4941151;29;20225;-72
2021/12/29 00:06:28;;;;;;;0.37;0.23;;;;;;;;;;4955509;28;20674;-73
2021/12/29 00:08:59;;;;;;;0.50;0.27;;;;;;;;;;4950800;28;20668;-73
2021/12/29 00:11:27;;;;;;;0.40;0.23;;;;;;;;;;4952639;28;20251;-73
2021/12/29 00:13:56;;;;;;;0.43;0.43;;;;;;;;;;4938957;29;20288;-73
2021/12/29 00:16:24;;;;;;;0.63;0.50;;;;;;;;;;4955429;28;20253;-72
2021/12/29 00:18:53;;;;;;;0.47;0.33;;;;;;;;;;4937826;28;20325;-72
2021/12/29 00:21:21;;;;;;;1.10;0.60;;;;;;;;;;4951692;28;20602;-72
2021/12/29 00:23:51;;;;;;;0.53;0.37;;;;;;;;;;4946722;28;20210;-73
2021/12/29 00:26:27;;;;;;;0.60;0.33;;;;;;;;;;4937501;29;20213;-72
2021/12/29 00:28:58;;;;;;;0.67;0.40;;;;;;;;;;4946807;29;20214;-72
2021/12/29 00:31:27;;;;;;;0.93;0.57;;;;;;;;;;4946406;28;20214;-72
2021/12/29 00:33:55;;;;;;;1.30;0.63;;;;;;;;;;4944232;29;20207;-73
2021/12/29 00:36:24;;;;;;;0.43;0.30;;;;;;;;;;4937460;29;20246;-72
2021/12/29 00:38:54;;;;;;;0.77;0.57;;;;;;;;;;4944312;29;20550;-73
2021/12/29 00:41:23;;;;;;;0.33;0.27;;;;;;;;;;4947899;28;20656;-73
2021/12/29 00:43:51;;;;;;;1.00;0.40;;;;;;;;;;4943311;29;20198;-72
2021/12/29 00:46:20;;;;;;;0.83;0.67;;;;;;;;;;4955010;28;20214;-73
2021/12/29 00:48:48;;;;;;;0.33;0.23;;;;;;;;;;4938600;28;20678;-72
2021/12/29 00:51:17;;;;;;;0.77;0.40;;;;;;;;;;4941708;29;20202;-73
2021/12/29 00:53:45;;;;;;;0.83;0.50;;;;;;;;;;4952869;29;20270;-72
2021/12/29 00:56:15;;;;;;;0.30;0.30;;;;;;;;;;4950519;28;20214;-73
2021/12/29 00:58:44;;;;;;;0.23;0.20;;;;;;;;;;4943888;29;20671;-72
2021/12/29 01:01:12;;;;;;;0.67;0.47;;;;;;;;;;4949620;28;20214;-72
2021/12/29 01:03:43;;;;;;;0.17;0.10;;;;;;;;;;4951914;29;20206;-73
2021/12/29 01:06:12;;;;;;;0.83;0.50;;;;;;;;;;4950873;28;20230;-72
2021/12/29 01:08:40;;;;;;;0.83;0.50;;;;;;;;;;4951477;29;20230;-73
2021/12/29 01:11:08;;;;;;;0.57;0.37;;;;;;;;;;4950632;28;20203;-72
2021/12/29 01:13:45;;;;;;;0.20;0.20;;;;;;;;;;4948442;29;20693;-72
2021/12/29 01:16:36;;;;;;;0.67;0.37;;;;;;;;;;4951581;29;20190;-72
2021/12/29 01:19:06;;;;;;;0.43;0.30;;;;;;;;;;4943381;29;20207;-73
2021/12/29 01:21:35;;;;;;;0.30;0.20;;;;;;;;;;4936281;29;20215;-72
2021/12/29 01:24:04;;;;;;;1.03;0.57;;;;;;;;;;4943019;29;20269;-72
2021/12/29 01:26:33;;;;;;;0.93;0.30;;;;;;;;;;4955689;28;20203;-72
2021/12/29 01:29:02;;;;;;;1.23;0.63;;;;;;;;;;4942441;29;20626;-72
2021/12/29 01:31:31;;;;;;;0.47;0.37;;;;;;;;;;4953307;28;20206;-71
2021/12/29 01:34:04;;;;;;;0.70;0.27;;;;;;;;;;4947968;28;20202;-72
2021/12/29 01:36:34;;;;;;;1.47;0.33;;;;;;;;;;4955312;28;20202;-72
2021/12/29 01:39:04;;;;;;;0.73;0.47;;;;;;;;;;4953424;28;20645;-72
2021/12/29 01:41:33;;;;;;;1.00;0.53;;;;;;;;;;4954885;28;20229;-73
2021/12/29 01:44:03;;;;;;;0.67;0.30;;;;;;;;;;4951470;29;20666;-72
2021/12/29 01:46:32;;;;;;;0.90;0.57;;;;;;;;;;4952123;29;20227;-72
2021/12/29 01:49:01;;;;;;;1.40;0.37;;;;;;;;;;4950581;29;20206;-73
2021/12/29 01:51:30;;;;;;;0.93;0.53;;;;;;;;;;4938648;28;20203;-72
2021/12/29 01:54:14;;;;;;;0.40;0.23;;;;;;;;;;4950464;28;20544;-73
2021/12/29 01:56:44;;;;;;;1.23;0.73;;;;;;;;;;4940441;28;20230;-72
2021/12/29 01:59:15;;;;;;;1.17;0.63;;;;;;;;;;4947978;29;20326;-72
2021/12/29 02:01:44;;;;;;;1.37;0.63;;;;;;;;;;4949477;28;20262;-72
2021/12/29 02:04:13;;;;;;;1.00;0.63;;;;;;;;;;4938637;28;20584;-72
2021/12/29 02:06:42;;;;;;;1.47;0.83;;;;;;;;;;4937419;29;20706;-72
2021/12/29 02:09:10;;;;;;;1.10;0.37;;;;;;;;;;4936259;29;20214;-73
2021/12/29 02:11:42;;;;;;;0.37;0.20;;;;;;;;;;4935593;29;20211;-72
2021/12/29 02:14:11;;;;;;;0.30;0.23;;;;;;;;;;4951126;29;20210;-72
2021/12/29 02:16:40;;;;;;;0.43;0.27;;;;;;;;;;4937761;28;20218;-72
2021/12/29 02:19:10;;;;;;;0.30;0.27;;;;;;;;;;4954506;28;20234;-73
2021/12/29 02:21:42;;;;;;;0.60;0.33;;;;;;;;;;4939248;28;20211;-72
2021/12/29 02:24:23;;;;;;;0.83;0.47;;;;;;;;;;4954452;29;20199;-73
2021/12/29 02:26:52;;;;;;;0.73;0.33;;;;;;;;;;4957214;28;20238;-73
2021/12/29 02:29:20;;;;;;;0.93;0.43;;;;;;;;;;4957541;29;20202;-73
2021/12/29 02:31:50;;;;;;;1.00;0.47;;;;;;;;;;4942310;28;20203;-71
2021/12/29 02:34:19;;;;;;;0.30;0.20;;;;;;;;;;4958782;28;20200;-70
2021/12/29 02:36:49;;;;;;;0.40;0.20;;;;;;;;;;4955723;29;20278;-70
2021/12/29 02:39:20;;;;;;;0.63;0.23;;;;;;;;;;4945213;28;20210;-70
2021/12/29 02:41:52;;;;;;;0.40;0.20;;;;;;;;;;4948027;28;20581;-71
2021/12/29 02:44:25;;;;;;;0.50;0.20;;;;;;;;;;4952784;29;20228;-71
2021/12/29 02:46:54;;;;;;;0.23;0.13;;;;;;;;;;4947716;28;20691;-70
2021/12/29 02:49:23;;;;;;;1.10;0.37;;;;;;;;;;4949671;29;20206;-71
2021/12/29 02:51:53;;;;;;;0.10;0.10;;;;;;;;;;4958165;28;20270;-71
2021/12/29 02:54:22;;;;;;;0.10;0.10;;;;;;;;;;4943614;28;20274;-71
2021/12/29 02:56:54;;;;;;;0.30;0.20;;;;;;;;;;4947254;28;20285;-71
2021/12/29 02:59:23;;;;;;;0.13;0.10;;;;;;;;;;4948215;28;20257;-70
2021/12/29 03:01:52;;;;;;;0.10;0.10;;;;;;;;;;4949867;28;20207;-71
2021/12/29 03:04:20;;;;;;;0.10;0.00;;;;;;;;;;4943261;29;20565;-70
2021/12/29 03:06:49;;;;;;;0.10;0.03;;;;;;;;;;4945444;29;20291;-71
2021/12/29 03:09:19;;;;;;;0.00;0.00;;;;;;;;;;4938871;29;20219;-71
2021/12/29 03:11:48;;;;;;;0.57;0.20;;;;;;;;;;4946091;29;20249;-71
2021/12/29 03:14:17;;;;;;;0.20;0.13;;;;;;;;;;4956702;28;20202;-71
2021/12/29 03:16:46;;;;;;;0.50;0.30;;;;;;;;;;4953969;28;20300;-71
2021/12/29 03:19:14;;;;;;;0.10;0.10;;;;;;;;;;4938700;29;20262;-71
2021/12/29 03:21:44;;;;;;;1.30;0.43;;;;;;;;;;4954129;29;20658;-71
2021/12/29 03:24:14;;;;;;;0.67;0.20;;;;;;;;;;4958251;28;20206;-71
2021/12/29 03:26:44;;;;;;;0.20;0.10;;;;;;;;;;4939959;28;20227;-71
2021/12/29 03:29:12;;;;;;;0.10;0.10;;;;;;;;;;4957281;29;20210;-71
2021/12/29 03:31:42;;;;;;;0.67;0.13;;;;;;;;;;4952051;28;20207;-71
2021/12/29 03:34:11;;;;;;;0.83;0.20;;;;;;;;;;4937638;29;20207;-71
2021/12/29 03:36:39;;;;;;;0.10;0.10;;;;;;;;;;4943720;29;20773;-71
2021/12/29 03:39:10;;;;;;;0.10;0.00;;;;;;;;;;4957608;28;20256;-71
2021/12/29 03:41:39;;;;;;;0.27;0.10;;;;;;;;;;4948335;28;20199;-71
2021/12/29 03:44:09;;;;;;;0.10;0.10;;;;;;;;;;4952182;28;20621;-71
2021/12/29 03:46:39;;;;;;;0.17;0.10;;;;;;;;;;4938467;29;20282;-71
2021/12/29 03:49:08;;;;;;;0.30;0.10;;;;;;;;;;4938101;29;20579;-71
2021/12/29 03:51:36;;;;;;;0.00;0.00;;;;;;;;;;4946582;29;20607;-71
2021/12/29 03:54:05;;;;;;;0.20;0.00;;;;;;;;;;4945110;28;20203;-71
2021/12/29 03:56:34;;;;;;;0.10;0.10;;;;;;;;;;4942160;29;20211;-72
2021/12/29 03:59:02;;;;;;;0.00;0.00;;;;;;;;;;4943952;29;20203;-71
2021/12/29 04:01:32;;;;;;;0.10;0.10;;;;;;;;;;4956460;28;20202;-71
2021/12/29 04:04:02;;;;;;;0.13;0.10;;;;;;;;;;4956890;28;20210;-71
2021/12/29 04:06:30;;;;;;;0.03;0.00;;;;;;;;;;4951832;28;20222;-71
2021/12/29 04:08:58;;;;;;;0.10;0.10;;;;;;;;;;4954758;28;20562;-71
2021/12/29 04:11:27;;;;;;;0.10;0.07;;;;;;;;;;4956465;28;20286;-71
2021/12/29 04:13:55;;;;;;;0.63;0.20;;;;;;;;;;4945753;29;20274;-71
2021/12/29 04:16:24;;;;;;;0.00;0.00;;;;;;;;;;4941250;28;20199;-72
2021/12/29 04:19:06;;;;;;;0.20;0.10;;;;;;;;;;4942595;28;20202;-71
2021/12/29 04:21:36;;;;;;;0.00;0.00;;;;;;;;;;4948359;28;20570;-71
2021/12/29 04:24:04;;;;;;;0.00;0.00;;;;;;;;;;4944402;29;20249;-71
2021/12/29 04:26:36;;;;;;;0.00;0.00;;;;;;;;;;4944866;28;20274;-71
2021/12/29 04:29:05;;;;;;;0.10;0.10;;;;;;;;;;4954902;29;20575;-71
2021/12/29 04:31:33;;;;;;;0.03;0.00;;;;;;;;;;4948254;28;20207;-71
2021/12/29 04:34:03;;;;;;;0.00;0.00;;;;;;;;;;4944688;29;20207;-71
2021/12/29 04:36:32;;;;;;;0.17;0.10;;;;;;;;;;4938537;29;20199;-71
2021/12/29 04:39:01;;;;;;;0.00;0.00;;;;;;;;;;4946525;29;20207;-71
2021/12/29 04:41:29;;;;;;;0.33;0.10;;;;;;;;;;4947322;28;20206;-71
2021/12/29 04:43:58;;;;;;;0.00;0.00;;;;;;;;;;4941662;29;20594;-71
2021/12/29 04:46:36;;;;;;;0.50;0.10;;;;;;;;;;4938385;29;20226;-71
2021/12/29 04:49:08;;;;;;;0.10;0.00;;;;;;;;;;4937540;29;20250;-71
2021/12/29 04:51:43;;;;;;;0.47;0.10;;;;;;;;;;4942918;29;20332;-71
2021/12/29 04:54:12;;;;;;;0.57;0.10;;;;;;;;;;4956331;29;20206;-71
2021/12/29 04:56:40;;;;;;;0.10;0.00;;;;;;;;;;4941250;28;20765;-71
2021/12/29 04:59:09;;;;;;;0.00;0.00;;;;;;;;;;4952047;29;20218;-71
2021/12/29 05:01:37;;;;;;;0.10;0.00;;;;;;;;;;4949054;28;20254;-71
2021/12/29 05:04:07;;;;;;;0.00;0.00;;;;;;;;;;4950518;29;20571;-71
2021/12/29 05:09:22;;;;;;;0.53;0.00;;;;;;;;;;4940624;29;20207;-71
2021/12/29 05:11:51;;;;;;;0.47;0.10;;;;;;;;;;4948452;29;20214;-71
2021/12/29 05:14:19;;;;;;;0.10;0.00;;;;;;;;;;4955775;28;20202;-71
2021/12/29 05:16:47;;;;;;;0.30;0.10;;;;;;;;;;4952752;28;20309;-71
2021/12/29 05:19:17;;;;;;;0.30;0.10;;;;;;;;;;4951437;28;20202;-70
2021/12/29 05:21:46;;;;;;;0.00;0.00;;;;;;;;;;4938650;28;20207;-70
2021/12/29 05:24:14;;;;;;;0.20;0.10;;;;;;;;;;4949657;29;20258;-71
2021/12/29 05:26:43;;;;;;;0.00;0.00;;;;;;;;;;4948647;28;20371;-72
2021/12/29 05:29:11;;;;;;;0.00;0.00;;;;;;;;;;4940213;29;20211;-70
2021/12/29 05:31:40;;;;;;;0.13;0.10;;;;;;;;;;4937091;29;20278;-71
2021/12/29 05:34:08;;;;;;;0.10;0.10;;;;;;;;;;4950019;29;20210;-71
2021/12/29 05:36:38;;;;;;;0.30;0.10;;;;;;;;;;4948213;28;20230;-71
2021/12/29 05:39:07;;;;;;;0.33;0.10;;;;;;;;;;4955242;28;20602;-71
2021/12/29 05:41:36;;;;;;;0.27;0.10;;;;;;;;;;4944632;28;20671;-71
2021/12/29 05:44:04;;;;;;;1.23;0.17;;;;;;;;;;4936182;29;20682;-71
2021/12/29 05:46:33;;;;;;;0.30;0.10;;;;;;;;;;4935739;29;20203;-71
2021/12/29 05:49:01;;;;;;;0.50;0.13;;;;;;;;;;4948538;29;20207;-71
2021/12/29 05:51:30;;;;;;;0.17;0.10;;;;;;;;;;4952859;28;20202;-71
2021/12/29 05:54:00;;;;;;;0.00;0.00;;;;;;;;;;4941348;28;20203;-70
2021/12/29 05:56:28;;;;;;;0.00;0.00;;;;;;;;;;4935716;29;20555;-71
2021/12/29 05:59:01;;;;;;;0.17;0.00;;;;;;;;;;4941948;29;20209;-71
2021/12/29 06:01:31;;;;;;;0.10;0.10;;;;;;;;;;4937584;29;20200;-72
2021/12/29 06:03:59;;;;;;;0.07;0.07;;;;;;;;;;4946196;29;20206;-71
2021/12/29 06:06:28;;;;;;;0.00;0.00;;;;;;;;;;4952002;28;20234;-70
2021/12/29 06:08:57;;;;;;;0.10;0.00;;;;;;;;;;4949103;29;20725;-71
2021/12/29 06:11:26;;;;;;;0.10;0.00;;;;;;;;;;4950316;28;20199;-71
2021/12/29 06:13:55;;;;;;;0.20;0.10;;;;;;;;;;4947433;29;20202;-71
2021/12/29 06:16:23;;;;;;;0.10;0.00;;;;;;;;;;4952267;28;20238;-70
2021/12/29 06:18:52;;;;;;;0.33;0.10;;;;;;;;;;4937514;29;20306;-71
2021/12/29 06:21:20;;;;;;;0.20;0.10;;;;;;;;;;4952570;28;20264;-71
2021/12/29 06:23:49;;;;;;;0.20;0.10;;;;;;;;;;4954147;29;20265;-71
2021/12/29 06:26:17;;;;;;;0.00;0.00;;;;;;;;;;4950135;28;20566;-70
2021/12/29 06:28:48;;;;;;;0.10;0.00;;;;;;;;;;4952629;29;20285;-70
2021/12/29 06:31:17;;;;;;;0.50;0.13;;;;;;;;;;4939449;28;20671;-71
2021/12/29 06:33:46;;;;;;;0.27;0.10;;;;;;;;;;4946876;28;20203;-71
2021/12/29 06:36:15;;;;;;;0.53;0.10;;;;;;;;;;4937605;29;20532;-70
2021/12/29 06:38:43;;;;;;;0.10;0.10;;;;;;;;;;4952248;29;20207;-70
2021/12/29 06:41:12;;;;;;;0.00;0.00;;;;;;;;;;4945087;28;20242;-71
2021/12/29 06:43:40;;;;;;;0.30;0.10;;;;;;;;;;4954413;28;20615;-71
2021/12/29 06:46:10;;;;;;;0.00;0.00;;;;;;;;;;4942902;28;20207;-71
2021/12/29 06:48:39;;;;;;;0.00;0.00;;;;;;;;;;4948323;28;20698;-71
2021/12/29 06:51:07;;;;;;;0.10;0.10;;;;;;;;;;4943427;28;20713;-71
2021/12/29 06:53:35;;;;;;;0.00;0.00;;;;;;;;;;4954754;29;20213;-71
2021/12/29 06:56:05;;;;;;;0.17;0.10;;;;;;;;;;4943852;28;20203;-70
2021/12/29 06:58:34;;;;;;;0.13;0.07;;;;;;;;;;4949145;29;20230;-71
2021/12/29 07:01:03;;;;;;;0.03;0.00;;;;;;;;;;4937645;28;20208;-71
2021/12/29 07:03:33;;;;;;;0.13;0.10;;;;;;;;;;4940203;29;20199;-71
2021/12/29 07:06:01;;;;;;;0.10;0.07;;;;;;;;;;4945355;29;20238;-71
2021/12/29 07:08:30;;;;;;;0.00;0.00;;;;;;;;;;4954195;28;20219;-71
2021/12/29 07:10:59;;;;;;;0.00;0.00;;;;;;;;;;4950354;28;20254;-71
2021/12/29 07:13:28;;;;;;;0.00;0.00;;;;;;;;;;4944881;29;20203;-72
2021/12/29 07:15:56;;;;;;;0.00;0.00;;;;;;;;;;4944372;29;20266;-71
2021/12/29 07:18:25;;;;;;;0.00;0.00;;;;;;;;;;4956522;28;20222;-71
2021/12/29 07:20:55;;;;;;;0.10;0.10;;;;;;;;;;4956115;28;20681;-71
2021/12/29 07:23:23;;;;;;;0.00;0.00;;;;;;;;;;4956933;28;20199;-70
2021/12/29 07:25:52;;;;;;;0.00;0.00;;;;;;;;;;4953178;28;20203;-71
2021/12/29 07:28:20;;;;;;;0.00;0.00;;;;;;;;;;4955326;29;20675;-71
2021/12/29 07:30:49;;;;;;;0.00;0.00;;;;;;;;;;4953001;28;20606;-72
2021/12/29 07:33:17;;;;;;;0.10;0.00;;;;;;;;;;4953109;28;20199;-71
2021/12/29 07:35:46;;;;;;;0.03;0.03;;;;;;;;;;4947728;28;20202;-71
2021/12/29 07:38:15;;;;;;;0.00;0.00;;;;;;;;;;4938491;29;20219;-71
2021/12/29 07:40:44;;;;;;;0.10;0.10;;;;;;;;;;4947062;29;20199;-71
2021/12/29 07:43:12;;;;;;;0.03;0.00;;;;;;;;;;4952883;29;20202;-72
2021/12/29 07:45:42;;;;;;;0.00;0.00;;;;;;;;;;4941630;28;20294;-71
2021/12/29 07:48:11;;;;;;;0.00;0.00;;;;;;;;;;4938187;29;20231;-72
2021/12/29 07:50:40;;;;;;;0.00;0.00;;;;;;;;;;4940092;29;20206;-72
2021/12/29 07:53:08;;;;;;;0.03;0.00;;;;;;;;;;4953240;28;20202;-71
2021/12/29 07:55:38;;;;;;;0.00;0.00;;;;;;;;;;4948128;28;20194;-71
2021/12/29 07:58:07;;;;;;;0.00;0.00;;;;;;;;;;4941840;28;20225;-71
2021/12/29 08:00:35;;;;;;;0.63;0.10;;;;;;;;;;4945641;28;20203;-71
2021/12/29 08:03:05;;;;;;;0.10;0.00;;;;;;;;;;4948177;28;20644;-72
2021/12/29 08:05:33;;;;;;;0.00;0.00;;;;;;;;;;4944295;29;20612;-72
2021/12/29 08:08:05;;;;;;;0.10;0.10;;;;;;;;;;4954970;29;20265;-71
2021/12/29 08:10:34;;;;;;;0.10;0.03;;;;;;;;;;4941367;28;20207;-72
2021/12/29 08:13:05;;;;;;;0.00;0.00;;;;;;;;;;4942202;28;20206;-72
2021/12/29 08:15:34;;;;;;;0.00;0.00;;;;;;;;;;4946117;28;20266;-71
2021/12/29 08:18:03;;;;;;;0.33;0.10;;;;;;;;;;4946887;28;20230;-72
2021/12/29 08:20:32;;;;;;;0.00;0.00;;;;;;;;;;4939598;28;20267;-73
2021/12/29 08:23:01;;;;;;;0.10;0.07;;;;;;;;;;4941815;29;20202;-73
2021/12/29 08:25:30;;;;;;;0.30;0.10;;;;;;;;;;4957001;28;20206;-72
2021/12/29 08:27:58;;;;;;;0.00;0.00;;;;;;;;;;4951169;28;20586;-71
2021/12/29 08:30:28;;;;;;;0.00;0.00;;;;;;;;;;4953335;29;20250;-71
2021/12/29 08:32:57;;;;;;;0.10;0.00;;;;;;;;;;4952922;28;20214;-73
2021/12/29 08:35:27;;;;;;;0.10;0.10;;;;;;;;;;4948542;29;20270;-71
2021/12/29 08:37:56;;;;;;;0.10;0.00;;;;;;;;;;4953973;28;20226;-72
2021/12/29 08:40:24;;;;;;;0.00;0.00;;;;;;;;;;4943480;29;20258;-71
2021/12/29 08:42:55;;;;;;;0.17;0.03;;;;;;;;;;4956497;28;20266;-73
2021/12/29 08:45:23;;;;;;;0.67;0.03;;;;;;;;;;4941837;28;20203;-72
2021/12/29 08:47:55;;;;;;;0.33;0.17;;;;;;;;;;4937740;29;20572;-72
2021/12/29 08:50:25;;;;;;;0.00;0.00;;;;;;;;;;4956139;28;20740;-72
2021/12/29 09:01:05;;;;;;;0.20;0.00;;;;;;;;;;5094825;23;20240;-74
2021/12/29 09:03:38;;;;;;;0.20;0.10;;;;;;;;;;4987204;28;20217;-74
2021/12/29 09:06:07;;;;;;;0.37;0.20;;;;;;;;;;4992075;28;20205;-73
2021/12/29 09:08:35;;;;;;;0.00;0.00;;;;;;;;;;4983775;28;20288;-73
2021/12/29 09:11:04;;;;;;;0.10;0.00;;;;;;;;;;4980649;28;20667;-73
2021/12/29 09:13:32;;;;;;;0.10;0.10;;;;;;;;;;4973245;28;20213;-74
2021/12/29 09:16:02;;;;;;;0.00;0.00;;;;;;;;;;4969269;28;20539;-72
2021/12/29 09:18:31;;;;;;;0.10;0.10;;;;;;;;;;4970883;28;20228;-73
2021/12/29 09:21:06;;;;;;;0.10;0.10;;;;;;;;;;4968346;28;20725;-73
2021/12/29 09:23:34;;;;;;;0.00;0.00;;;;;;;;;;4974421;28;20612;-74
2021/12/29 09:26:03;;;;;;;0.23;0.17;;;;;;;;;;4978782;28;20201;-73
2021/12/29 09:28:31;;;;;;;0.00;0.00;;;;;;;;;;4971818;28;20629;-73
2021/12/29 09:31:00;;;;;;;0.27;0.20;;;;;;;;;;4974027;28;20711;-74
2021/12/29 09:33:29;;;;;;;0.00;0.00;;;;;;;;;;4972367;28;20205;-74
2021/12/29 09:36:01;;;;;;;0.00;0.00;;;;;;;;;;4978515;28;20739;-73
2021/12/29 09:38:34;;;;;;;0.10;0.10;;;;;;;;;;4974155;28;20272;-74
2021/12/29 09:41:03;;;;;;;0.00;0.00;;;;;;;;;;4980769;28;20206;-73
2021/12/29 09:43:32;;;;;;;0.10;0.10;;;;;;;;;;4964990;28;20265;-74
2021/12/29 09:46:00;;;;;;;0.10;0.10;;;;;;;;;;4968826;28;20210;-75
2021/12/29 09:48:28;;;;;;;0.00;0.00;;;;;;;;;;4960578;28;20284;-74
2021/12/29 09:50:57;;;;;;;0.27;0.10;;;;;;;;;;4974458;28;20218;-73
2021/12/29 09:53:25;;;;;;;0.43;0.00;;;;;;;;;;4974003;28;20205;-74
2021/12/29 09:55:55;;;;;;;0.10;0.00;;;;;;;;;;4974092;28;20206;-75
2021/12/29 09:58:24;;;;;;;0.13;0.03;;;;;;;;;;4971919;28;20218;-73
2021/12/29 10:00:54;;;;;;;0.00;0.00;;;;;;;;;;4972653;28;20280;-75
2021/12/29 10:03:28;;;;;;;0.00;0.00;;;;;;;;;;4973050;28;20257;-74
2021/12/29 10:05:57;;;;;;;0.10;0.10;;;;;;;;;;4969442;28;20206;-74
2021/12/29 10:08:27;;;;;;;0.17;0.10;;;;;;;;;;4972255;28;20576;-73
2021/12/29 10:10:59;;;;;;;0.00;0.00;;;;;;;;;;4966769;28;20260;-73
2021/12/29 10:13:29;;;;;;;0.20;0.10;;;;;;;;;;4973253;28;20260;-74
2021/12/29 10:16:01;;;;;;;0.00;0.00;;;;;;;;;;4972436;28;20210;-74
2021/12/29 10:18:30;;;;;;;0.20;0.10;;;;;;;;;;4965572;28;20277;-73
2021/12/29 10:21:00;;;;;;;0.00;0.00;;;;;;;;;;4969987;28;20213;-72
2021/12/29 10:23:30;;;;;;;0.10;0.10;;;;;;;;;;4971293;28;20657;-73
2021/12/29 10:26:06;;;;;;;0.10;0.10;;;;;;;;;;4971860;28;20206;-73
2021/12/29 10:28:35;;;;;;;0.13;0.10;;;;;;;;;;4971990;28;20224;-74
2021/12/29 10:31:05;;;;;;;0.10;0.10;;;;;;;;;;4959374;28;20297;-74
2021/12/29 10:33:36;;;;;;;0.00;0.00;;;;;;;;;;4970546;28;20195;-73
2021/12/29 10:36:12;;;;;;;0.03;0.03;;;;;;;;;;4973762;28;20202;-72
2021/12/29 10:38:41;;;;;;;0.10;0.10;;;;;;;;;;4964906;28;20256;-74
2021/12/29 10:41:11;;;;;;;0.13;0.10;;;;;;;;;;4968096;28;20199;-73
2021/12/29 10:43:40;;;;;;;0.00;0.00;;;;;;;;;;4974541;28;20217;-75
2021/12/29 10:46:18;;;;;;;0.10;0.10;;;;;;;;;;4974320;28;20198;-74
2021/12/29 10:48:48;;;;;;;0.07;0.07;;;;;;;;;;4975597;28;20606;-74
2021/12/29 10:51:17;;;;;;;0.10;0.07;;;;;;;;;;4980857;28;20221;-72
2021/12/29 10:53:46;;;;;;;0.20;0.10;;;;;;;;;;4976887;28;20202;-74
2021/12/29 10:56:23;;;;;;;0.00;0.00;;;;;;;;;;4977046;28;20205;-73
2021/12/29 10:58:54;;;;;;;0.10;0.10;;;;;;;;;;4976781;28;20653;-73
2021/12/29 11:01:24;;;;;;;0.27;0.10;;;;;;;;;;4984037;28;20204;-74
2021/12/29 11:03:55;;;;;;;0.10;0.07;;;;;;;;;;4976933;28;20205;-73
2021/12/29 11:06:25;;;;;;;0.10;0.10;;;;;;;;;;4986933;28;20205;-75
2021/12/29 11:08:54;;;;;;;0.10;0.00;;;;;;;;;;4976753;28;20261;-73
2021/12/29 11:11:33;;;;;;;0.20;0.10;;;;;;;;;;4971714;28;20217;-75
2021/12/29 11:14:07;;;;;;;0.10;0.07;;;;;;;;;;4975442;28;20248;-73
2021/12/29 11:16:36;;;;;;;0.10;0.00;;;;;;;;;;4995893;28;20251;-73
2021/12/29 11:19:04;;;;;;;0.10;0.07;;;;;;;;;;4981819;28;20623;-73
2021/12/29 11:21:34;;;;;;;0.10;0.10;;;;;;;;;;4976994;28;20286;-74
2021/12/29 11:24:13;;;;;;;0.20;0.10;;;;;;;;;;4978579;28;20564;-73
2021/12/29 11:26:44;;;;;;;0.20;0.00;;;;;;;;;;4994245;28;20308;-74
2021/12/29 11:29:14;;;;;;;0.10;0.10;;;;;;;;;;4990161;28;20208;-74
2021/12/29 11:31:43;;;;;;;0.00;0.00;;;;;;;;;;4976602;28;20237;-74
2021/12/29 11:34:16;;;;;;;0.00;0.00;;;;;;;;;;4988055;28;20211;-74
2021/12/29 11:36:45;;;;;;;0.10;0.10;;;;;;;;;;4977457;28;20225;-75
2021/12/29 11:39:13;;;;;;;0.10;0.00;;;;;;;;;;4978877;28;20225;-75
2021/12/29 11:41:42;;;;;;;0.07;0.00;;;;;;;;;;4978740;28;20191;-74
2021/12/29 11:44:12;;;;;;;0.13;0.10;;;;;;;;;;4976263;28;20198;-73
2021/12/29 11:46:40;;;;;;;0.20;0.10;;;;;;;;;;4981164;28;20217;-74
2021/12/29 11:49:09;;;;;;;0.10;0.00;;;;;;;;;;4988300;28;20671;-74
2021/12/29 11:51:42;;;;;;;0.10;0.10;;;;;;;;;;4965934;28;20701;-75
2021/12/29 11:54:13;;;;;;;0.00;0.00;;;;;;;;;;4961596;28;20260;-75
2021/12/29 11:56:42;;;;;;;0.20;0.10;;;;;;;;;;4976512;28;20217;-75
2021/12/29 11:59:11;;;;;;;0.00;0.00;;;;;;;;;;4988615;28;20217;-73
2021/12/29 12:01:57;;;;;;;0.10;0.10;;;;;;;;;;4957029;29;20218;-74
2021/12/29 12:04:26;;;;;;;0.00;0.00;;;;;;;;;;4964700;28;20189;-74
2021/12/29 12:07:01;;;;;;;0.30;0.10;;;;;;;;;;4981352;28;20249;-74
2021/12/29 12:09:30;;;;;;;0.20;0.10;;;;;;;;;;4978404;28;20194;-73
2021/12/29 12:12:00;;;;;;;0.00;0.00;;;;;;;;;;4986038;28;20226;-75
2021/12/29 12:14:30;;;;;;;0.00;0.00;;;;;;;;;;4972382;28;20197;-74
2021/12/29 12:17:01;;;;;;;0.20;0.10;;;;;;;;;;4975764;28;20309;-75
2021/12/29 12:19:31;;;;;;;0.00;0.00;;;;;;;;;;4974448;28;20216;-76
2021/12/29 12:22:04;;;;;;;0.00;0.00;;;;;;;;;;4975010;28;20252;-75
2021/12/29 12:24:33;;;;;;;0.20;0.10;;;;;;;;;;4975192;28;20566;-75
2021/12/29 12:27:03;;;;;;;0.10;0.10;;;;;;;;;;4975540;28;20217;-74
2021/12/29 12:29:33;;;;;;;0.00;0.00;;;;;;;;;;4973146;28;20205;-73
2021/12/29 12:32:05;;;;;;;0.27;0.10;;;;;;;;;;4969713;28;20693;-74
2021/12/29 12:34:34;;;;;;;0.03;0.03;;;;;;;;;;4975787;28;20205;-73
2021/12/29 12:37:13;;;;;;;0.20;0.10;;;;;;;;;;4974539;28;20689;-74
2021/12/29 12:39:52;;;;;;;0.00;0.00;;;;;;;;;;4975804;28;20261;-73
2021/12/29 12:42:20;;;;;;;0.00;0.00;;;;;;;;;;4970097;28;20252;-75
2021/12/29 12:44:49;;;;;;;0.10;0.10;;;;;;;;;;4972483;28;20246;-74
2021/12/29 12:47:19;;;;;;;0.10;0.10;;;;;;;;;;4970826;28;20229;-73
2021/12/29 12:49:49;;;;;;;0.10;0.10;;;;;;;;;;4969914;28;20622;-75
2021/12/29 12:52:18;;;;;;;0.10;0.10;;;;;;;;;;4980435;28;20215;-73
2021/12/29 12:54:51;;;;;;;0.20;0.17;;;;;;;;;;4979150;28;20213;-74
2021/12/29 12:57:30;;;;;;;0.27;0.10;;;;;;;;;;4983195;28;20220;-75
2021/12/29 13:00:07;;;;;;;0.00;0.00;;;;;;;;;;4972774;28;20217;-74
2021/12/29 13:02:39;;;;;;;0.10;0.00;;;;;;;;;;4982023;28;20653;-73
2021/12/29 13:05:09;;;;;;;0.00;0.00;;;;;;;;;;4969155;28;20749;-74
2021/12/29 13:07:39;;;;;;;0.20;0.17;;;;;;;;;;4973845;28;20226;-74
2021/12/29 13:10:09;;;;;;;0.50;0.00;;;;;;;;;;4980002;28;20206;-75
2021/12/29 13:12:40;;;;;;;0.33;0.20;;;;;;;;;;4981404;28;20641;-73
2021/12/29 13:15:10;;;;;;;0.27;0.10;;;;;;;;;;4967258;28;20257;-75
2021/12/29 13:17:42;;;;;;;0.10;0.10;;;;;;;;;;4973971;28;20293;-73
2021/12/29 13:20:12;;;;;;;0.20;0.10;;;;;;;;;;4972138;28;20198;-74
2021/12/29 13:22:41;;;;;;;0.10;0.10;;;;;;;;;;4971152;28;20202;-75
2021/12/29 13:25:12;;;;;;;0.30;0.10;;;;;;;;;;4972324;28;20549;-75
2021/12/29 13:27:42;;;;;;;0.23;0.20;;;;;;;;;;4973911;28;20276;-73
2021/12/29 13:30:12;;;;;;;0.17;0.10;;;;;;;;;;4975663;28;20198;-76
2021/12/29 13:32:52;;;;;;;0.10;0.10;;;;;;;;;;4981320;28;20233;-73
2021/12/29 13:35:26;;;;;;;0.23;0.13;;;;;;;;;;4970092;28;20213;-75
2021/12/29 13:37:56;;;;;;;0.17;0.17;;;;;;;;;;4977377;28;20225;-75
2021/12/29 13:40:28;;;;;;;0.53;0.27;;;;;;;;;;4970149;28;20204;-74
2021/12/29 13:42:57;;;;;;;0.10;0.10;;;;;;;;;;4973149;28;20198;-75
2021/12/29 13:45:26;;;;;;;0.30;0.10;;;;;;;;;;4968645;28;20202;-75
2021/12/29 13:47:57;;;;;;;0.33;0.23;;;;;;;;;;4974234;28;20225;-74
2021/12/29 13:50:25;;;;;;;0.13;0.13;;;;;;;;;;4977049;28;20207;-75
2021/12/29 13:52:57;;;;;;;0.10;0.10;;;;;;;;;;4982702;28;20227;-73
2021/12/29 13:55:27;;;;;;;0.20;0.10;;;;;;;;;;4973374;28;20205;-73
2021/12/29 13:57:57;;;;;;;0.27;0.27;;;;;;;;;;4975277;28;20225;-74
2021/12/29 14:00:26;;;;;;;0.43;0.23;;;;;;;;;;4974484;28;20288;-73
2021/12/29 14:02:54;;;;;;;0.10;0.10;;;;;;;;;;4964549;28;20216;-74
2021/12/29 14:05:34;;;;;;;0.10;0.10;;;;;;;;;;4974693;28;20283;-74
2021/12/29 14:08:03;;;;;;;0.30;0.20;;;;;;;;;;4970956;28;20775;-73
2021/12/29 14:10:32;;;;;;;0.20;0.10;;;;;;;;;;4974850;28;20276;-73
2021/12/29 14:13:07;;;;;;;0.10;0.10;;;;;;;;;;4975070;28;20280;-74
2021/12/29 14:15:36;;;;;;;0.30;0.20;;;;;;;;;;4974445;28;20266;-73
2021/12/29 14:18:17;;;;;;;0.23;0.23;;;;;;;;;;4975273;28;20233;-74
2021/12/29 14:20:47;;;;;;;1.10;0.20;;;;;;;;;;4978640;28;20189;-75
2021/12/29 14:23:15;;;;;;;0.73;0.23;;;;;;;;;;4976881;28;20616;-75
2021/12/29 14:25:48;;;;;;;0.33;0.23;;;;;;;;;;4960990;28;20682;-74
2021/12/29 14:28:17;;;;;;;0.20;0.20;;;;;;;;;;4997469;28;20224;-74
2021/12/29 14:30:46;;;;;;;0.53;0.20;;;;;;;;;;4984695;28;20648;-75
2021/12/29 14:33:15;;;;;;;0.33;0.20;;;;;;;;;;4975830;28;20367;-73
2021/12/29 14:35:53;;;;;;;0.37;0.20;;;;;;;;;;4980142;28;20252;-74
2021/12/29 14:38:21;;;;;;;0.60;0.27;;;;;;;;;;4989384;28;20233;-75
2021/12/29 14:40:50;;;;;;;0.20;0.10;;;;;;;;;;4979214;28;20213;-75
2021/12/29 14:43:22;;;;;;;0.40;0.20;;;;;;;;;;4977403;28;20280;-75
2021/12/29 14:45:52;;;;;;;0.33;0.10;;;;;;;;;;4979295;28;20206;-75
2021/12/29 14:48:21;;;;;;;0.10;0.10;;;;;;;;;;4976050;28;21018;-75
2021/12/29 14:50:51;;;;;;;0.23;0.17;;;;;;;;;;4977189;28;20206;-73
2021/12/29 14:53:21;;;;;;;0.20;0.10;;;;;;;;;;4976322;28;20222;-75
2021/12/29 14:55:51;;;;;;;0.20;0.10;;;;;;;;;;4977569;28;20268;-74
2021/12/29 14:58:20;;;;;;;0.20;0.10;;;;;;;;;;4977195;28;20226;-75
2021/12/29 15:00:49;;;;;;;0.20;0.10;;;;;;;;;;4977054;28;20221;-75
2021/12/29 15:03:21;;;;;;;0.10;0.10;;;;;;;;;;4981417;28;20288;-73
2021/12/29 15:05:52;;;;;;;0.30;0.20;;;;;;;;;;4993787;28;20212;-75
2021/12/29 15:08:21;;;;;;;0.13;0.10;;;;;;;;;;4975943;28;20221;-74
2021/12/29 15:10:55;;;;;;;0.13;0.10;;;;;;;;;;4978972;28;20213;-73